Time;durP1;ratioP1;P1;durP2;ratioP2;P2;SDS_P1;SDS_P2;PMS_P1;PMS_P2;Temp;Humidity;BMP_temperature;BMP_pressure;BME280_temperature;BME280_humidity;BME280_pressure;Samples;Min_cycle;Max_cycle;Signal;HPM_P1;HPM_P2
2021/04/06 00:00:11;;;;;;;5.03;3.40;;;;;;;-1.22;79.69;99305.09;1787399;80;21208;-85
2021/04/06 00:02:41;;;;;;;7.92;4.55;;;;;;;-1.20;79.68;99307.75;1787555;80;21223;-84
2021/04/06 00:05:10;;;;;;;19.52;10.18;;;;;;;-1.15;79.78;99307.55;1787539;80;21172;-84
2021/04/06 00:07:37;;;;;;;13.78;7.12;;;;;;;-1.14;79.70;99304.17;1787643;79;21140;-84
2021/04/06 00:10:13;;;;;;;7.08;4.08;;;;;;;-1.16;79.77;99301.92;1787790;80;22797;-85
2021/04/06 00:12:40;;;;;;;17.27;9.28;;;;;;;-1.13;79.79;99315.37;1787401;80;21255;-85
2021/04/06 00:15:09;;;;;;;32.05;16.15;;;;;;;-1.11;79.90;99313.75;1778403;80;21371;-86
2021/04/06 00:17:36;;;;;;;75.08;38.10;;;;;;;-1.03;80.11;99317.19;1787838;80;21134;-85
2021/04/06 00:20:05;;;;;;;17.45;9.48;;;;;;;-0.93;80.19;99318.92;1727027;80;21601;-85
2021/04/06 00:22:32;;;;;;;14.63;9.85;;;;;;;-0.84;80.26;99320.65;1787838;80;21887;-85
2021/04/06 00:25:00;;;;;;;15.38;10.10;;;;;;;-0.73;80.36;99322.04;1778333;80;21159;-84
2021/04/06 00:27:34;;;;;;;12.10;7.55;;;;;;;-0.59;80.47;99329.13;1787770;79;21124;-85
2021/04/06 00:30:16;;;;;;;11.08;5.85;;;;;;;-0.48;80.48;99327.05;1787692;80;21167;-85
2021/04/06 00:32:44;;;;;;;6.53;3.37;;;;;;;-0.36;80.46;99325.00;1788016;80;21108;-85
2021/04/06 00:35:11;;;;;;;9.35;4.83;;;;;;;-0.22;80.44;99322.64;1787742;80;22692;-85
2021/04/06 00:37:47;;;;;;;5.95;3.27;;;;;;;-0.10;80.42;99330.47;1787643;80;21215;-85
2021/04/06 00:40:14;;;;;;;3.72;1.90;;;;;;;0.00;80.34;99333.96;1788044;80;21152;-85
2021/04/06 00:42:42;;;;;;;4.80;2.10;;;;;;;0.10;80.19;99341.30;1787692;80;21184;-85
2021/04/06 00:45:16;;;;;;;4.62;2.00;;;;;;;0.17;80.07;99335.99;1787779;80;21191;-84
2021/04/06 00:47:44;;;;;;;4.67;1.87;;;;;;;0.24;80.04;99338.42;1755686;80;21903;-85
2021/04/06 00:50:14;;;;;;;4.25;1.70;;;;;;;0.33;80.06;99342.70;1787470;80;21140;-85
2021/04/06 00:52:45;;;;;;;4.05;1.87;;;;;;;0.39;80.00;99349.42;1787520;80;21148;-85
2021/04/06 00:55:18;;;;;;;2.17;1.45;;;;;;;0.44;79.96;99350.52;1787426;80;21140;-84
2021/04/06 00:57:48;;;;;;;2.62;1.65;;;;;;;0.53;80.17;99350.91;1787738;80;21084;-85
2021/04/06 01:00:23;;;;;;;1.75;1.12;;;;;;;0.64;80.28;99356.94;1787482;80;21931;-85
2021/04/06 01:03:06;;;;;;;3.77;1.62;;;;;;;0.73;80.44;99359.52;1787439;80;21176;-84
2021/04/06 01:05:36;;;;;;;1.35;1.10;;;;;;;0.80;80.70;99359.77;1787617;80;21160;-84
2021/04/06 01:08:04;;;;;;;3.55;1.27;;;;;;;0.88;80.92;99353.19;1787439;80;21579;-84
2021/04/06 01:10:32;;;;;;;4.62;1.30;;;;;;;0.91;81.05;99349.02;1787422;80;21155;-84
2021/04/06 01:12:59;;;;;;;2.85;1.30;;;;;;;0.93;81.21;99354.27;1787522;80;21940;-84
2021/04/06 01:15:27;;;;;;;2.67;1.35;;;;;;;0.92;81.43;99355.98;1755369;80;21144;-83
2021/04/06 01:17:54;;;;;;;2.75;1.40;;;;;;;0.93;81.39;99361.63;1787300;80;21196;-83
2021/04/06 01:20:21;;;;;;;2.92;1.30;;;;;;;0.92;81.52;99348.21;1756436;80;21159;-84
2021/04/06 01:22:52;;;;;;;2.30;1.30;;;;;;;0.90;81.72;99355.04;1787527;80;21141;-84
2021/04/06 01:28:06;;;;;;;1.72;1.45;;;;;;;0.90;81.96;99347.27;1810880;78;22670;-84
2021/04/06 01:30:45;;;;;;;2.10;1.12;;;;;;;0.85;81.92;99340.13;1796843;79;21159;-84
2021/04/06 01:33:17;;;;;;;1.00;0.90;;;;;;;0.80;81.87;99335.16;1796084;79;21842;-85
2021/04/06 01:35:56;;;;;;;3.15;0.70;;;;;;;0.75;81.88;99333.66;1796822;79;21144;-87
2021/04/06 01:38:26;;;;;;;0.93;0.70;;;;;;;0.71;81.87;99332.68;1792322;79;21200;-86
2021/04/06 01:40:55;;;;;;;0.60;0.60;;;;;;;0.66;81.90;99338.48;1796727;79;23076;-86
2021/04/06 01:43:25;;;;;;;0.85;0.70;;;;;;;0.61;81.78;99343.88;1796760;79;21561;-85
2021/04/06 01:46:03;;;;;;;1.87;0.90;;;;;;;0.56;81.88;99356.61;1796838;79;21942;-84
2021/04/06 01:48:32;;;;;;;2.87;1.20;;;;;;;0.53;81.97;99353.50;1796782;79;21132;-84
2021/04/06 01:51:00;;;;;;;1.40;0.90;;;;;;;0.50;81.98;99355.95;1789377;79;21579;-84
2021/04/06 01:53:28;;;;;;;1.87;1.20;;;;;;;0.42;81.75;99359.92;1796714;79;21164;-84
2021/04/06 01:56:06;;;;;;;1.60;1.20;;;;;;;0.34;81.71;99362.60;1796883;79;21131;-85
2021/04/06 01:58:32;;;;;;;1.70;1.12;;;;;;;0.31;81.92;99367.22;1796342;79;21968;-84
2021/04/06 02:03:45;;;;;;;1.65;0.90;;;;;;;0.42;82.17;99345.69;1796679;79;21223;-84
2021/04/06 02:06:13;;;;;;;1.45;0.93;;;;;;;0.34;81.90;99356.13;1765150;79;21650;-84
2021/04/06 02:08:48;;;;;;;1.47;0.90;;;;;;;0.28;81.87;99363.61;1796698;79;21649;-84
2021/04/06 02:11:27;;;;;;;1.17;0.80;;;;;;;0.26;81.98;99363.95;1795768;79;21967;-84
2021/04/06 02:14:06;;;;;;;0.90;0.80;;;;;;;0.23;81.98;99367.72;1796693;79;21179;-84
2021/04/06 02:16:55;;;;;;;1.30;1.10;;;;;;;0.16;81.98;99367.42;1764277;79;21143;-89
2021/04/06 02:19:41;;;;;;;2.17;0.82;;;;;;;0.12;81.99;99377.59;1796586;79;21582;-83
2021/04/06 02:22:14;;;;;;;1.67;1.05;;;;;;;0.05;82.02;99371.24;1796348;79;21132;-84
2021/04/06 02:24:47;;;;;;;;;;;;;;;0.01;82.00;99374.52;1799276;79;21792;-84
2021/04/06 02:27:24;;;;;;;1.10;0.80;;;;;;;-0.05;82.09;99383.30;1791531;78;20411;-84
2021/04/06 02:29:55;;;;;;;1.82;1.02;;;;;;;-0.09;82.07;99377.10;1788244;80;21084;-84
2021/04/06 02:32:26;;;;;;;3.83;0.90;;;;;;;-0.13;82.03;99370.41;1787982;80;21587;-84
2021/04/06 02:34:57;;;;;;;3.83;1.17;;;;;;;-0.18;82.11;99377.98;1788310;80;21132;-83
2021/04/06 02:37:26;;;;;;;1.20;0.98;;;;;;;-0.18;82.35;99384.44;1786886;80;21908;-84
2021/04/06 02:39:56;;;;;;;1.17;0.82;;;;;;;-0.19;82.41;99386.53;1787315;80;21179;-83
2021/04/06 02:42:28;;;;;;;0.70;0.70;;;;;;;-0.19;82.53;99393.00;1787413;80;21219;-83
2021/04/06 02:45:13;;;;;;;2.20;0.80;;;;;;;-0.17;82.59;99393.08;1787565;80;21167;-83
2021/04/06 02:47:44;;;;;;;2.25;0.90;;;;;;;-0.17;82.65;99391.37;1787305;80;21254;-83
2021/04/06 02:50:15;;;;;;;1.27;1.02;;;;;;;-0.11;82.70;99398.14;1787463;80;21896;-83
2021/04/06 02:52:42;;;;;;;2.10;1.90;;;;;;;-0.13;82.55;99401.06;1787481;80;21188;-84
2021/04/06 02:55:11;;;;;;;3.67;1.50;;;;;;;-0.16;82.50;99403.91;1787435;80;21137;-83
2021/04/06 02:57:43;;;;;;;5.10;1.70;;;;;;;-0.17;82.50;99403.00;1787262;80;21148;-84
2021/04/06 03:00:13;;;;;;;9.60;2.15;;;;;;;-0.17;82.47;99404.30;1787825;80;21148;-84
2021/04/06 03:02:41;;;;;;;12.43;2.40;;;;;;;-0.16;82.55;99401.33;1782347;80;22098;-84
2021/04/06 03:05:09;;;;;;;11.95;2.75;;;;;;;-0.14;82.52;99406.16;1787454;80;21168;-84
2021/04/06 03:07:46;;;;;;;15.78;2.72;;;;;;;-0.12;82.63;99407.11;1787535;80;21184;-84
2021/04/06 03:10:19;;;;;;;9.00;2.80;;;;;;;-0.11;82.65;99417.53;1787388;80;21226;-84
2021/04/06 03:12:50;;;;;;;19.25;3.10;;;;;;;-0.09;82.70;99414.61;1787666;80;21191;-84
2021/04/06 03:15:26;;;;;;;17.17;4.25;;;;;;;-0.03;82.90;99425.64;1757639;80;21671;-83
2021/04/06 03:17:55;;;;;;;15.03;3.40;;;;;;;0.04;83.13;99428.99;1787471;80;21180;-84
2021/04/06 03:20:25;;;;;;;14.63;2.80;;;;;;;0.11;83.09;99425.88;1787454;80;21116;-84
2021/04/06 03:22:54;;;;;;;18.45;3.17;;;;;;;0.16;83.02;99430.83;1787434;80;21414;-84
2021/04/06 03:25:22;;;;;;;13.55;3.30;;;;;;;0.18;82.91;99430.48;1787605;80;21152;-84
2021/04/06 03:27:51;;;;;;;16.20;3.30;;;;;;;0.23;82.87;99436.30;1787340;80;22936;-84
2021/04/06 03:33:11;;;;;;;13.55;3.45;;;;;;;0.45;83.25;99436.44;1888982;76;24203;-85
2021/04/06 03:35:43;;;;;;;29.02;9.28;;;;;;;0.54;83.42;99443.28;1857125;77;21562;-84
2021/04/06 03:38:11;;;;;;;40.92;17.65;;;;;;;0.70;83.41;99445.27;1857298;77;22157;-83
2021/04/06 03:40:39;;;;;;;52.10;20.35;;;;;;;0.83;83.32;99436.33;1857072;77;21123;-83
2021/04/06 03:43:18;;;;;;;113.08;50.98;;;;;;;0.94;83.14;99440.25;1857135;77;21102;-85
2021/04/06 03:45:59;;;;;;;71.20;29.02;;;;;;;1.01;82.88;99441.38;1857092;77;21122;-83
2021/04/06 03:48:28;;;;;;;121.35;54.95;;;;;;;1.06;82.71;99440.75;1857030;77;21106;-83
2021/04/06 03:51:00;;;;;;;60.75;26.45;;;;;;;1.10;82.53;99441.77;1857113;77;22784;-85
2021/04/06 03:53:43;;;;;;;24.92;8.83;;;;;;;1.13;82.44;99441.48;1855634;77;21205;-88
2021/04/06 03:56:11;;;;;;;25.90;6.05;;;;;;;1.17;82.28;99447.69;1857267;77;21158;-90
2021/04/06 03:58:44;;;;;;;20.20;5.03;;;;;;;1.20;82.14;99458.16;1857558;77;21127;-89
2021/04/06 04:01:09;;;;;;;26.70;6.45;;;;;;;1.21;82.12;99453.46;1856833;77;21617;-85
2021/04/06 04:03:36;;;;;;;21.97;5.28;;;;;;;1.22;81.98;99459.52;1857008;76;21948;-89
2021/04/06 04:06:09;;;;;;;20.17;4.28;;;;;;;1.23;81.96;99464.77;1856705;77;21226;-91
2021/04/06 04:08:46;;;;;;;20.00;3.83;;;;;;;1.24;81.83;99464.36;1857768;77;29123;-89
2021/04/06 04:11:29;;;;;;;19.85;4.03;;;;;;;1.23;81.66;99463.48;1850623;77;21083;-91
2021/04/06 04:13:56;;;;;;;25.12;4.10;;;;;;;1.19;81.45;99462.88;1856826;77;21182;-80
2021/04/06 04:16:23;;;;;;;19.60;3.87;;;;;;;1.15;81.32;99459.70;1856557;76;21868;-80
2021/04/06 04:18:51;;;;;;;14.40;3.65;;;;;;;1.15;81.40;99461.87;1856583;77;21138;-81
2021/04/06 04:21:18;;;;;;;22.87;4.45;;;;;;;1.20;81.48;99461.17;1856727;76;21122;-81
2021/04/06 04:23:45;;;;;;;20.68;4.20;;;;;;;1.25;81.45;99470.03;1856812;77;21174;-86
2021/04/06 04:26:12;;;;;;;16.07;3.50;;;;;;;1.27;81.36;99474.44;1857145;77;21126;-88
2021/04/06 04:28:39;;;;;;;21.02;3.67;;;;;;;1.32;81.28;99478.54;1857096;77;21878;-83
2021/04/06 04:31:10;;;;;;;17.05;3.62;;;;;;;1.40;81.34;99480.15;1856807;77;21257;-82
2021/04/06 04:33:36;;;;;;;15.93;3.83;;;;;;;1.52;81.50;99491.91;1859736;77;21573;-83
2021/04/06 04:36:04;;;;;;;14.00;3.42;;;;;;;1.72;81.56;99484.91;1860109;77;21158;-89
2021/04/06 04:38:31;;;;;;;17.85;3.72;;;;;;;1.87;81.37;99488.53;1860761;76;21127;-89
2021/04/06 04:40:59;;;;;;;11.12;3.45;;;;;;;2.02;81.25;99490.84;1860547;77;22891;-90
2021/04/06 04:43:27;;;;;;;19.30;3.77;;;;;;;2.19;81.07;99489.31;1857570;76;21178;-89
2021/04/06 04:45:54;;;;;;;16.73;3.67;;;;;;;2.39;81.16;99493.55;1762800;80;21141;-91
2021/04/06 04:48:24;;;;;;;18.57;5.03;;;;;;;2.59;80.78;99501.18;1682003;84;21219;-90
2021/04/06 04:50:55;;;;;;;20.40;4.75;;;;;;;2.69;80.49;99502.00;1707476;84;21211;-91
2021/04/06 04:53:23;;;;;;;21.87;5.28;;;;;;;2.86;80.48;99488.31;1707144;84;21906;-90
2021/04/06 04:55:50;;;;;;;15.38;5.95;;;;;;;3.21;80.55;99497.34;1707046;83;21242;-89
2021/04/06 04:58:18;;;;;;;20.43;6.35;;;;;;;3.99;81.58;99486.41;1719635;83;21637;-89
2021/04/06 05:00:46;;;;;;;16.40;5.87;;;;;;;4.56;80.01;99493.30;1701900;84;21259;-88
2021/04/06 05:03:13;;;;;;;19.02;6.45;;;;;;;4.58;78.39;99489.02;1710583;81;21226;-89
2021/04/06 05:05:40;;;;;;;23.32;8.33;;;;;;;4.51;77.59;99493.61;1751896;80;21903;-88
2021/04/06 05:08:08;;;;;;;22.22;5.97;;;;;;;4.38;77.26;99504.96;1778425;80;21637;-89
2021/04/06 05:13:14;;;;;;;19.62;6.05;;;;;;;4.98;78.63;99497.54;1888579;76;22666;-87
2021/04/06 05:15:46;;;;;;;24.80;7.75;;;;;;;5.35;77.48;99507.66;1859295;77;21546;-84
2021/04/06 05:20:56;;;;;;;16.57;4.90;;;;;;;5.50;76.20;99507.16;1780523;78;22555;-83
2021/04/06 05:23:24;;;;;;;17.50;5.17;;;;;;;5.77;75.86;99508.25;1719755;83;21576;-84
2021/04/06 05:25:51;;;;;;;17.98;6.58;;;;;;;6.01;75.45;99515.83;1734658;82;21974;-83
2021/04/06 05:28:18;;;;;;;19.90;5.37;;;;;;;6.23;74.90;99518.92;1734017;82;21228;-83
2021/04/06 05:30:45;;;;;;;17.00;5.97;;;;;;;6.19;74.12;99515.78;1719719;83;21156;-84
2021/04/06 05:33:12;;;;;;;28.85;12.63;;;;;;;6.07;73.72;99519.01;1734427;82;21208;-83
2021/04/06 05:35:39;;;;;;;48.55;27.35;;;;;;;5.89;73.33;99513.31;1719733;83;21607;-83
2021/04/06 05:38:07;;;;;;;24.02;11.00;;;;;;;5.78;73.38;99516.96;1734513;82;21231;-83
2021/04/06 05:40:34;;;;;;;37.67;23.10;;;;;;;5.76;73.22;99510.42;1719722;83;21212;-86
2021/04/06 05:43:04;;;;;;;30.40;16.12;;;;;;;5.77;73.42;99523.92;1726355;82;21610;-82
2021/04/06 05:45:33;;;;;;;38.65;23.00;;;;;;;5.98;73.59;99533.16;1713880;82;21598;-83
2021/04/06 05:48:02;;;;;;;39.25;21.73;;;;;;;6.14;73.29;99526.58;1719807;83;21216;-83
2021/04/06 05:50:29;;;;;;;49.25;26.17;;;;;;;6.06;72.57;99526.38;1734622;82;21947;-86
2021/04/06 05:52:57;;;;;;;85.60;47.20;;;;;;;5.82;72.23;99534.50;1719832;83;21236;-84
2021/04/06 05:55:24;;;;;;;104.97;58.87;;;;;;;5.92;72.96;99527.77;1724832;82;21176;-86
2021/04/06 05:57:54;;;;;;;94.03;53.33;;;;;;;6.07;72.78;99533.81;1685776;85;21144;-84
2021/04/06 06:00:22;;;;;;;74.75;45.38;;;;;;;6.09;72.28;99532.98;1695706;82;21513;-84
2021/04/06 06:02:59;;;;;;;51.33;26.30;;;;;;;5.98;72.00;99542.30;1757854;81;22796;-83
2021/04/06 06:05:27;;;;;;;46.23;27.07;;;;;;;5.95;72.10;99547.41;1718997;83;21121;-83
2021/04/06 06:07:54;;;;;;;39.67;18.82;;;;;;;6.08;72.20;99542.99;1693476;84;21195;-83
2021/04/06 06:13:24;;;;;;;41.08;22.05;;;;;;;6.12;71.73;99546.53;1813000;77;22754;-82
2021/04/06 06:16:14;;;;;;;24.72;12.88;;;;;;;6.16;71.89;99554.50;1797268;79;21123;-84
2021/04/06 06:19:01;;;;;;;24.98;9.70;;;;;;;6.30;71.65;99549.58;1797119;79;21836;-82
2021/04/06 06:21:47;;;;;;;15.30;6.37;;;;;;;6.48;71.69;99554.34;1797050;79;21163;-82
2021/04/06 06:24:27;;;;;;;17.32;5.33;;;;;;;6.73;71.36;99562.72;1797382;79;21116;-87
2021/04/06 06:27:33;;;;;;;16.45;5.20;;;;;;;6.67;70.43;99563.47;1796426;79;21153;-87
2021/04/06 06:29:55;;;;;;;14.18;5.00;;;;;;;6.52;70.29;99557.48;1788285;79;21144;-85
2021/04/06 06:32:23;;;;;;;19.10;6.35;;;;;;;6.47;70.18;99573.48;1734035;80;22121;-84
2021/04/06 06:34:50;;;;;;;17.07;7.30;;;;;;;6.39;69.98;99561.98;1789428;80;21167;-84
2021/04/06 06:37:27;;;;;;;17.60;5.15;;;;;;;6.24;69.79;99574.27;1789530;80;21227;-83
2021/04/06 06:39:58;;;;;;;19.05;5.30;;;;;;;6.07;69.77;99575.61;1789357;80;21092;-84
2021/04/06 06:42:39;;;;;;;15.30;5.10;;;;;;;5.87;69.61;99579.86;1789026;80;21148;-83
2021/04/06 06:45:21;;;;;;;22.55;9.13;;;;;;;5.63;69.54;99591.86;1710246;81;21902;-89
2021/04/06 06:47:55;;;;;;;11.88;6.17;;;;;;;5.47;69.77;99596.24;1765302;79;21163;-88
2021/04/06 06:50:24;;;;;;;13.72;4.80;;;;;;;5.37;69.87;99596.42;1795978;79;21203;-87
2021/04/06 06:52:55;;;;;;;17.70;4.97;;;;;;;5.27;70.01;99599.17;1795892;79;21127;-87
2021/04/06 06:55:24;;;;;;;18.62;4.58;;;;;;;5.19;69.93;99600.27;1795782;79;21600;-87
2021/04/06 06:58:02;;;;;;;13.70;4.53;;;;;;;5.09;70.01;99594.34;1795570;79;22954;-87
2021/04/06 07:00:29;;;;;;;17.00;4.65;;;;;;;5.04;69.95;99597.23;1793623;79;21196;-87
2021/04/06 07:03:15;;;;;;;17.48;4.95;;;;;;;4.99;70.04;99602.73;1796496;79;21139;-88
2021/04/06 07:05:42;;;;;;;12.03;4.08;;;;;;;4.96;70.07;99601.36;1796719;79;21159;-89
2021/04/06 07:08:10;;;;;;;20.55;4.47;;;;;;;4.97;70.26;99600.50;1796858;79;21175;-88
2021/04/06 07:10:42;;;;;;;12.82;3.27;;;;;;;5.19;70.51;99605.91;1796784;79;21906;-87
2021/04/06 07:13:18;;;;;;;17.45;5.05;;;;;;;5.31;70.08;99598.84;1789472;79;21188;-88
2021/04/06 07:15:47;;;;;;;13.18;3.65;;;;;;;5.51;70.41;99601.56;1764653;80;21213;-84
2021/04/06 07:18:20;;;;;;;19.00;3.17;;;;;;;5.84;70.07;99600.27;1757283;80;21186;-89
2021/04/06 07:20:59;;;;;;;16.90;3.77;;;;;;;5.99;69.71;99599.80;1764206;80;21219;-88
2021/04/06 07:23:55;;;;;;;9.13;2.98;;;;;;;6.16;69.34;99600.66;1788207;80;21958;-85
2021/04/06 07:26:23;;;;;;;12.98;3.67;;;;;;;6.47;69.61;99600.05;1787986;80;21144;-86
2021/04/06 07:28:50;;;;;;;9.63;3.50;;;;;;;6.56;68.52;99602.45;1787738;80;21160;-84
2021/04/06 07:31:17;;;;;;;12.33;3.58;;;;;;;6.56;68.45;99610.72;1787565;79;21192;-83
2021/04/06 07:33:47;;;;;;;12.65;3.95;;;;;;;6.62;68.53;99610.85;1787629;80;21155;-83
2021/04/06 07:36:22;;;;;;;10.88;2.98;;;;;;;6.73;68.33;99616.33;1787771;80;21989;-86
2021/04/06 07:38:57;;;;;;;14.58;3.75;;;;;;;6.79;68.19;99617.36;1787395;80;21141;-89
2021/04/06 07:41:29;;;;;;;14.10;4.30;;;;;;;6.95;68.12;99625.53;1753092;80;21116;-89
2021/04/06 07:43:57;;;;;;;12.85;3.30;;;;;;;7.10;67.82;99624.55;1772756;80;21579;-88
2021/04/06 07:46:47;;;;;;;19.45;4.60;;;;;;;7.24;67.59;99621.33;1748834;82;21187;-88
2021/04/06 07:49:34;;;;;;;12.00;3.52;;;;;;;7.36;67.25;99628.13;1748649;81;22070;-87
2021/04/06 07:52:17;;;;;;;18.12;4.20;;;;;;;7.43;66.96;99629.98;1748888;82;21155;-86
2021/04/06 07:54:47;;;;;;;11.93;4.33;;;;;;;7.51;66.98;99624.93;1748676;82;21671;-82
2021/04/06 07:57:14;;;;;;;15.18;4.15;;;;;;;7.53;66.42;99622.78;1748654;82;21670;-87
2021/04/06 07:59:43;;;;;;;11.33;4.08;;;;;;;7.66;66.60;99624.30;1748649;82;21197;-86
2021/04/06 08:02:16;;;;;;;11.08;4.15;;;;;;;7.73;66.16;99627.09;1748685;82;21896;-84
2021/04/06 08:04:54;;;;;;;12.05;3.45;;;;;;;7.73;65.99;99632.34;1748614;82;21159;-85
2021/04/06 08:07:32;;;;;;;12.47;3.58;;;;;;;7.79;65.87;99632.88;1748282;82;21194;-84
2021/04/06 08:10:19;;;;;;;14.30;4.47;;;;;;;7.91;65.82;99633.52;1748511;82;21159;-83
2021/04/06 08:12:49;;;;;;;19.92;4.92;;;;;;;7.99;65.45;99630.59;1773986;79;21164;-84
2021/04/06 08:18:01;;;;;;;11.93;3.65;;;;;;;8.29;65.05;99632.84;1888524;75;22877;-85
2021/04/06 08:20:40;;;;;;;9.73;3.70;;;;;;;8.29;64.75;99643.33;1859462;76;21120;-85
2021/04/06 08:23:40;;;;;;;14.47;4.08;;;;;;;8.31;64.31;99649.91;1859301;76;21895;-83
2021/04/06 08:26:30;;;;;;;13.75;4.22;;;;;;;8.28;64.28;99656.00;1859274;77;21630;-85
2021/04/06 08:29:27;;;;;;;12.95;4.47;;;;;;;8.23;64.03;99660.27;1851907;76;21634;-82
2021/04/06 08:32:15;;;;;;;12.78;4.53;;;;;;;8.29;64.05;99660.80;1774699;79;21141;-83
2021/04/06 08:34:54;;;;;;;29.32;12.95;;;;;;;8.26;63.59;99662.95;1784995;79;21611;-83
2021/04/06 08:37:36;;;;;;;17.32;8.93;;;;;;;8.19;63.58;99659.77;1740492;81;22964;-83
2021/04/06 08:40:08;;;;;;;32.70;14.70;;;;;;;8.34;63.93;99670.51;1714687;83;21236;-83
2021/04/06 08:42:36;;;;;;;47.90;21.77;;;;;;;8.43;63.66;99668.91;1778892;80;21187;-83
2021/04/06 08:45:04;;;;;;;24.70;9.85;;;;;;;8.58;63.69;99674.44;1821635;77;21162;-82
2021/04/06 08:47:44;;;;;;;50.65;24.43;;;;;;;8.69;63.29;99668.02;1785459;79;21205;-82
2021/04/06 08:50:21;;;;;;;30.97;12.58;;;;;;;8.70;62.96;99675.05;1791855;80;22871;-82
2021/04/06 08:52:50;;;;;;;37.50;17.67;;;;;;;8.65;62.29;99686.80;1788817;80;22062;-82
2021/04/06 08:55:17;;;;;;;28.83;14.00;;;;;;;8.49;62.42;99683.46;1791914;80;21667;-82
2021/04/06 08:57:45;;;;;;;35.55;16.42;;;;;;;8.25;61.87;99691.33;1819822;78;21180;-83
2021/04/06 09:00:15;;;;;;;27.02;11.03;;;;;;;8.01;62.04;99694.39;1731089;80;21747;-83
2021/04/06 09:02:51;;;;;;;26.27;11.50;;;;;;;7.83;61.97;99695.35;1784252;79;21885;-83
2021/04/06 09:05:18;;;;;;;38.88;17.00;;;;;;;7.68;62.21;99709.06;1779715;80;21178;-82
2021/04/06 09:07:45;;;;;;;42.43;18.52;;;;;;;7.62;62.33;99700.66;1782188;80;21189;-82
2021/04/06 09:10:12;;;;;;;33.23;14.13;;;;;;;7.57;62.27;99703.16;1782229;80;21240;-82
2021/04/06 09:12:42;;;;;;;33.50;15.93;;;;;;;7.54;62.27;99703.53;1782390;80;21209;-82
2021/04/06 09:15:12;;;;;;;34.10;15.45;;;;;;;7.57;62.33;99706.22;1787443;80;21893;-82
2021/04/06 09:17:40;;;;;;;36.75;17.17;;;;;;;7.57;62.35;99705.78;1777896;80;21200;-82
2021/04/06 09:20:11;;;;;;;32.33;15.28;;;;;;;7.51;62.28;99712.65;1798683;78;21204;-82
2021/04/06 09:22:39;;;;;;;30.48;11.05;;;;;;;7.43;62.10;99718.13;1801198;79;21255;-82
2021/04/06 09:25:19;;;;;;;26.27;10.43;;;;;;;7.37;62.14;99718.45;1777838;79;21184;-82
2021/04/06 09:27:57;;;;;;;24.80;9.43;;;;;;;7.30;62.11;99723.53;1784494;80;22797;-82
2021/04/06 09:30:33;;;;;;;34.60;13.45;;;;;;;7.28;62.15;99721.30;1795070;79;21208;-82
2021/04/06 09:33:02;;;;;;;28.90;11.60;;;;;;;7.32;62.32;99730.58;1800681;79;21148;-82
2021/04/06 09:35:29;;;;;;;31.48;13.95;;;;;;;7.26;62.13;99725.19;1791977;78;21619;-83
2021/04/06 09:37:58;;;;;;;27.98;13.00;;;;;;;7.33;62.48;99727.53;1779101;79;21114;-83
2021/04/06 09:40:38;;;;;;;58.33;26.65;;;;;;;7.56;62.58;99730.62;1793443;80;21890;-82
2021/04/06 09:43:05;;;;;;;32.73;14.93;;;;;;;7.64;62.14;99728.16;1791192;79;21219;-83
2021/04/06 09:45:33;;;;;;;46.02;18.25;;;;;;;7.67;61.92;99726.48;1793721;79;21219;-82
2021/04/06 09:48:00;;;;;;;67.55;22.73;;;;;;;7.77;61.88;99726.23;1795160;79;21617;-82
2021/04/06 09:50:27;;;;;;;46.58;17.52;;;;;;;7.95;61.94;99723.11;1795593;79;21152;-82
2021/04/06 09:53:03;;;;;;;36.03;13.93;;;;;;;8.17;61.92;99731.83;1795230;79;22387;-82
2021/04/06 09:55:33;;;;;;;42.23;18.65;;;;;;;8.20;61.26;99731.42;1761737;79;21206;-82
2021/04/06 09:58:04;;;;;;;30.97;11.28;;;;;;;8.07;61.08;99732.93;1795413;79;21183;-82
2021/04/06 10:00:35;;;;;;;20.37;8.35;;;;;;;7.97;61.05;99741.92;1762330;79;21171;-82
2021/04/06 10:03:13;;;;;;;33.10;13.68;;;;;;;7.74;60.99;99745.41;1788546;79;21207;-83
2021/04/06 10:05:44;;;;;;;23.20;10.08;;;;;;;7.54;60.95;99746.30;1780546;80;21907;-83
2021/04/06 10:08:16;;;;;;;19.57;8.13;;;;;;;7.42;61.19;99752.60;1788337;79;21181;-83
2021/04/06 10:10:48;;;;;;;23.42;10.10;;;;;;;7.39;61.43;99748.20;1777885;80;21196;-83
2021/04/06 10:13:15;;;;;;;33.02;14.95;;;;;;;7.46;61.60;99754.43;1786816;79;21422;-83
2021/04/06 10:15:43;;;;;;;21.82;10.55;;;;;;;7.51;61.34;99750.19;1786234;79;21220;-83
2021/04/06 10:18:15;;;;;;;31.60;13.40;;;;;;;7.58;61.38;99750.78;1789531;79;21883;-83
2021/04/06 10:20:47;;;;;;;26.05;11.85;;;;;;;7.69;61.53;99744.86;1827796;77;21172;-83
2021/04/06 10:23:17;;;;;;;14.20;6.78;;;;;;;7.89;61.55;99743.96;1792006;79;21129;-83
2021/04/06 10:25:45;;;;;;;17.25;7.05;;;;;;;8.17;61.44;99745.38;1795092;79;21583;-83
2021/04/06 10:28:22;;;;;;;20.27;8.83;;;;;;;8.29;61.01;99746.02;1795054;79;21203;-83
2021/04/06 10:30:57;;;;;;;23.90;9.15;;;;;;;8.36;60.79;99736.97;1789461;79;21220;-83
2021/04/06 10:33:32;;;;;;;28.67;12.05;;;;;;;8.42;60.59;99741.47;1788548;80;21199;-83
2021/04/06 10:36:06;;;;;;;21.00;8.18;;;;;;;8.37;60.08;99745.70;1789174;79;21587;-83
2021/04/06 10:38:39;;;;;;;25.12;9.88;;;;;;;8.23;59.76;99745.47;1789588;80;21300;-82
2021/04/06 10:41:15;;;;;;;22.77;8.80;;;;;;;8.08;59.89;99743.88;1789402;80;21662;-84
2021/04/06 10:43:50;;;;;;;28.02;9.78;;;;;;;7.90;59.80;99742.69;1807694;77;21959;-82
2021/04/06 10:46:23;;;;;;;21.62;8.05;;;;;;;7.78;59.91;99738.50;1836886;77;21836;-82
2021/04/06 10:49:05;;;;;;;35.20;13.70;;;;;;;7.59;59.75;99730.70;1814226;79;21141;-84
2021/04/06 10:51:36;;;;;;;22.85;7.83;;;;;;;7.46;60.01;99726.06;1811587;78;21165;-82
2021/04/06 10:54:10;;;;;;;31.23;13.75;;;;;;;7.34;59.79;99728.01;1785268;78;21216;-82
2021/04/06 10:56:54;;;;;;;22.40;10.80;;;;;;;7.25;59.79;99716.02;1763905;81;22573;-82
2021/04/06 10:59:34;;;;;;;26.55;13.55;;;;;;;7.18;59.67;99717.61;1762893;81;21219;-82
2021/04/06 11:02:01;;;;;;;14.63;5.42;;;;;;;7.29;59.86;99712.19;1763990;81;21147;-83
2021/04/06 11:04:31;;;;;;;20.60;6.65;;;;;;;7.52;59.74;99718.33;1823392;78;21144;-83
2021/04/06 11:07:04;;;;;;;25.32;10.60;;;;;;;7.83;59.73;99709.36;1817386;78;21156;-82
2021/04/06 11:09:39;;;;;;;24.77;11.83;;;;;;;8.11;59.32;99709.45;1791012;80;22800;-83
2021/04/06 11:12:11;;;;;;;15.63;6.83;;;;;;;8.22;58.94;99710.05;1807848;77;21180;-84
2021/04/06 11:14:41;;;;;;;17.60;6.33;;;;;;;8.34;58.58;99708.97;1781004;79;21172;-83
2021/04/06 11:17:08;;;;;;;14.40;5.78;;;;;;;8.41;58.14;99717.80;1751716;81;21272;-83
2021/04/06 11:19:44;;;;;;;17.82;7.33;;;;;;;8.48;58.03;99713.16;1759529;80;21181;-83
2021/04/06 11:22:16;;;;;;;19.80;9.85;;;;;;;8.59;57.88;99708.09;1781774;80;22813;-83
2021/04/06 11:24:47;;;;;;;14.43;6.42;;;;;;;8.84;57.95;99706.32;1778576;79;21226;-83
2021/04/06 11:27:14;;;;;;;15.88;8.93;;;;;;;8.96;57.31;99708.23;1752789;80;21458;-84
2021/04/06 11:29:43;;;;;;;15.72;7.70;;;;;;;9.00;57.20;99703.48;1785324;79;21191;-83
2021/04/06 11:32:16;;;;;;;16.82;6.70;;;;;;;9.06;57.14;99702.24;1786502;80;21172;-83
2021/04/06 11:34:44;;;;;;;13.80;7.08;;;;;;;9.30;57.42;99706.95;1786443;79;21865;-84
2021/04/06 11:37:11;;;;;;;14.30;5.42;;;;;;;9.60;57.00;99702.08;1787801;79;21174;-83
2021/04/06 11:39:42;;;;;;;9.65;3.85;;;;;;;9.80;56.76;99698.35;1793193;79;21185;-84
2021/04/06 11:42:10;;;;;;;9.35;4.45;;;;;;;9.97;56.39;99704.70;1764441;79;21235;-84
2021/04/06 11:44:37;;;;;;;12.85;4.67;;;;;;;10.14;56.24;99705.31;1775031;79;21157;-84
2021/04/06 11:47:05;;;;;;;9.65;4.40;;;;;;;10.36;55.94;99706.00;1793074;80;21859;-84
2021/04/06 11:49:32;;;;;;;8.53;5.25;;;;;;;10.53;55.58;99704.83;1782576;79;21251;-84
2021/04/06 11:51:59;;;;;;;9.83;4.28;;;;;;;10.44;55.09;99708.25;1781144;80;21121;-83
2021/04/06 11:54:33;;;;;;;10.38;4.08;;;;;;;10.33;55.10;99699.83;1791136;79;21209;-84
2021/04/06 11:59:58;;;;;;;11.60;4.55;;;;;;;9.97;54.78;99702.06;1778306;79;23447;-84
2021/04/06 12:02:32;;;;;;;8.40;3.60;;;;;;;9.76;54.64;99705.76;1733707;82;21170;-82
2021/04/06 12:05:10;;;;;;;9.28;4.78;;;;;;;9.56;54.63;99706.42;1750715;81;22073;-84
2021/04/06 12:07:46;;;;;;;11.85;4.28;;;;;;;9.40;54.74;99709.27;1733375;81;21211;-84
2021/04/06 12:10:18;;;;;;;7.85;3.27;;;;;;;9.22;54.66;99715.61;1750287;81;21219;-84
2021/04/06 12:12:45;;;;;;;9.25;3.60;;;;;;;9.04;54.17;99710.53;1759844;81;21214;-84
2021/04/06 12:15:13;;;;;;;10.00;3.75;;;;;;;8.90;54.13;99706.84;1763375;81;21208;-84